Time;durP1;ratioP1;P1;durP2;ratioP2;P2;SDS_P1;SDS_P2;PMS_P1;PMS_P2;Temp;Humidity;BMP_temperature;BMP_pressure;BME280_temperature;BME280_humidity;BME280_pressure;Samples;Min_cycle;Max_cycle;Signal;HPM_P1;HPM_P2
2024/01/09 00:04:23;;;;;;;20.10;13.43;;;;;;;-0.13;97.91;97853.94;10319411;28;20041;-48
2024/01/09 00:09:22;;;;;;;29.15;18.83;;;;;;;-0.57;97.95;97794.28;10325718;28;20761;-48
2024/01/09 00:14:21;;;;;;;21.38;11.73;;;;;;;-0.33;97.27;97888.78;10326587;28;20402;-47
2024/01/09 00:19:20;;;;;;;16.10;9.52;;;;;;;-0.78;98.64;97879.97;10324606;28;20029;-47
2024/01/09 00:24:19;;;;;;;17.17;10.50;;;;;;;-0.73;98.80;97901.44;10327006;28;20048;-48
2024/01/09 00:29:18;;;;;;;25.48;14.13;;;;;;;-0.77;98.69;97892.75;10323676;28;20120;-47
2024/01/09 00:34:17;;;;;;;14.00;8.77;;;;;;;-0.61;99.13;97914.72;10326510;28;20044;-48
2024/01/09 00:39:15;;;;;;;14.95;9.95;;;;;;;-0.69;98.16;97910.97;10326887;28;20407;-47
2024/01/09 00:44:14;;;;;;;19.10;11.40;;;;;;;-0.96;99.14;97874.91;10322897;28;20025;-47
2024/01/09 00:49:13;;;;;;;13.13;9.80;;;;;;;-0.66;98.14;97911.09;10325811;28;20485;-48
2024/01/09 00:54:12;;;;;;;14.07;9.07;;;;;;;-0.77;98.58;97919.94;10320963;28;20517;-47
2024/01/09 00:59:11;;;;;;;18.40;11.98;;;;;;;-0.84;98.44;97917.13;10324659;28;20141;-48
2024/01/09 01:04:10;;;;;;;22.77;13.48;;;;;;;-0.96;98.77;97916.53;10325350;28;20061;-47
2024/01/09 01:09:10;;;;;;;16.73;10.55;;;;;;;-1.00;99.29;97947.78;10325741;28;20025;-47
2024/01/09 01:14:09;;;;;;;16.02;9.57;;;;;;;-3.06;98.86;97614.00;10323218;28;20489;-47
2024/01/09 01:19:08;;;;;;;15.57;9.52;;;;;;;-1.41;99.90;97890.66;10323901;28;20406;-48
2024/01/09 01:24:07;;;;;;;19.42;12.73;;;;;;;-1.12;99.19;97931.88;10325543;28;20038;-47
2024/01/09 01:29:06;;;;;;;14.52;8.13;;;;;;;-1.76;98.89;97855.88;10325669;28;20068;-48
2024/01/09 01:34:05;;;;;;;13.73;8.80;;;;;;;-1.43;99.83;97940.59;10323847;28;20105;-47
2024/01/09 01:39:04;;;;;;;18.67;10.07;;;;;;;-1.36;100.00;97965.56;10323267;28;20031;-49
2024/01/09 01:44:14;;;;;;;18.35;10.35;;;;;;;-1.38;100.00;97964.59;10324892;28;20044;-49
2024/01/09 01:49:16;;;;;;;13.95;9.10;;;;;;;-1.41;100.00;97954.28;10322277;28;20072;-48
2024/01/09 01:54:16;;;;;;;19.90;14.30;;;;;;;-1.10;100.00;97965.94;10321549;28;20100;-48
2024/01/09 01:59:19;;;;;;;18.35;11.30;;;;;;;-0.82;99.68;97974.09;10321968;28;20049;-49
2024/01/09 02:04:19;;;;;;;18.08;12.23;;;;;;;-0.67;99.15;97966.31;10321863;28;20053;-50
2024/01/09 02:09:18;;;;;;;19.65;12.30;;;;;;;-1.01;99.41;97908.66;10322830;28;20060;-48
2024/01/09 02:14:17;;;;;;;19.30;11.13;;;;;;;-0.42;99.37;97978.47;10322466;28;20116;-48
2024/01/09 02:19:16;;;;;;;14.30;9.13;;;;;;;-0.43;98.09;97986.94;10321625;28;20021;-47
2024/01/09 02:24:15;;;;;;;16.90;10.25;;;;;;;-0.63;97.52;97969.84;10319536;28;20842;-47
2024/01/09 02:29:19;;;;;;;20.83;11.55;;;;;;;-0.64;97.24;97986.81;10321058;28;20903;-47
2024/01/09 02:34:21;;;;;;;17.60;11.27;;;;;;;-0.73;97.61;97994.03;10318559;28;20117;-47
2024/01/09 02:39:19;;;;;;;15.38;9.55;;;;;;;-1.09;97.34;97947.34;10321389;28;20064;-47
2024/01/09 02:44:18;;;;;;;15.55;9.75;;;;;;;-0.82;96.80;97996.16;10321285;28;20102;-48
2024/01/09 02:49:17;;;;;;;15.82;10.13;;;;;;;-0.89;96.27;97982.25;10321081;28;20037;-48
2024/01/09 02:54:16;;;;;;;16.10;10.18;;;;;;;-1.12;97.54;97934.44;10320672;28;20458;-48
2024/01/09 02:59:15;;;;;;;17.20;9.98;;;;;;;-0.78;97.10;98017.56;10320606;28;20107;-47
2024/01/09 03:04:14;;;;;;;19.30;12.40;;;;;;;-0.87;97.50;97998.47;10320714;28;20080;-47
2024/01/09 03:09:13;;;;;;;16.05;9.93;;;;;;;-1.21;97.17;97975.63;10319312;28;20033;-48
2024/01/09 03:14:13;;;;;;;12.82;7.57;;;;;;;-1.15;97.25;98005.59;10319206;28;20025;-48
2024/01/09 03:19:12;;;;;;;14.02;8.35;;;;;;;-1.30;96.61;98019.31;10321240;28;20526;-48
2024/01/09 03:24:11;;;;;;;15.23;9.57;;;;;;;-1.92;97.90;97918.69;10316450;28;20978;-48
2024/01/09 03:29:10;;;;;;;16.15;10.00;;;;;;;-1.41;97.57;97997.56;10319239;28;20612;-48
2024/01/09 03:34:09;;;;;;;14.02;8.95;;;;;;;-1.43;97.33;98030.56;10320117;28;20128;-48
2024/01/09 03:39:10;;;;;;;18.73;12.27;;;;;;;-1.38;96.78;98009.56;10319912;28;20466;-49
2024/01/09 03:44:09;;;;;;;14.52;9.35;;;;;;;-1.85;97.09;97927.50;10324135;28;20064;-48
2024/01/09 03:49:09;;;;;;;15.55;10.57;;;;;;;-1.26;96.53;98030.53;10327300;28;20499;-49
2024/01/09 03:54:07;;;;;;;;;;;;;;;-1.30;95.90;98042.25;10327019;28;20495;-49
2024/01/09 03:59:06;;;;;;;15.15;9.20;;;;;;;-1.53;95.95;98030.91;10326151;28;20456;-47
2024/01/09 04:04:06;;;;;;;17.55;11.15;;;;;;;-1.61;95.45;98008.41;10326957;28;20033;-48
2024/01/09 04:09:05;;;;;;;18.40;10.98;;;;;;;-1.32;96.30;98056.56;10326511;28;20120;-48
2024/01/09 04:14:04;;;;;;;19.67;12.43;;;;;;;-1.59;96.32;98057.69;10326469;28;20160;-48
2024/01/09 04:19:03;;;;;;;22.02;13.85;;;;;;;-1.41;94.80;98091.72;10326623;28;20121;-48
2024/01/09 04:24:02;;;;;;;;;;;;;;;-1.34;95.56;98101.44;10326640;28;20076;-48
2024/01/09 04:29:01;;;;;;;32.67;19.52;;;;;;;-1.34;95.13;98073.41;10329068;28;19943;-48
2024/01/09 04:34:00;;;;;;;20.55;11.85;;;;;;;-1.16;95.49;98116.78;10330065;28;20025;-48
2024/01/09 04:39:00;;;;;;;18.42;11.57;;;;;;;-2.57;93.76;97906.91;10328679;28;20084;-48
2024/01/09 04:43:59;;;;;;;25.08;14.45;;;;;;;-1.42;95.24;98130.72;10329302;28;20517;-47
2024/01/09 04:48:58;;;;;;;19.88;11.15;;;;;;;-1.70;92.77;98154.72;10328816;28;20032;-47
2024/01/09 04:53:57;;;;;;;48.95;28.17;;;;;;;-2.12;94.34;98077.88;10326832;28;20034;-47
2024/01/09 04:58:56;;;;;;;46.58;28.92;;;;;;;-1.83;93.31;98154.84;10297989;28;20057;-49
2024/01/09 05:03:55;;;;;;;26.33;14.63;;;;;;;-1.89;93.15;98150.31;10286986;28;20112;-47
2024/01/09 05:08:54;;;;;;;26.63;14.45;;;;;;;-1.90;92.73;98163.81;10284297;28;20073;-47
2024/01/09 05:13:53;;;;;;;28.17;16.00;;;;;;;-2.12;92.79;98138.03;10286724;28;20041;-48
2024/01/09 05:18:53;;;;;;;24.50;14.30;;;;;;;-2.32;93.22;98142.00;10286716;28;20110;-48
2024/01/09 05:23:52;;;;;;;34.88;20.05;;;;;;;-2.58;93.32;98117.69;10286774;28;20081;-47
2024/01/09 05:28:50;;;;;;;36.33;20.17;;;;;;;-2.43;93.27;98132.91;10286518;28;20108;-50
2024/01/09 05:33:50;;;;;;;22.77;11.32;;;;;;;-2.36;92.34;98165.47;10293516;28;20041;-47
2024/01/09 05:38:51;;;;;;;37.53;22.45;;;;;;;-2.39;93.32;98172.94;10326542;28;20072;-49
2024/01/09 05:43:50;;;;;;;35.55;19.23;;;;;;;-2.83;92.78;98106.13;10323888;28;20076;-47
2024/01/09 05:48:49;;;;;;;;;;;;;;;-2.36;91.16;98204.50;10326167;28;20088;-47
2024/01/09 05:53:48;;;;;;;34.60;18.25;;;;;;;-2.59;91.18;98212.44;10325090;28;20286;-47
2024/01/09 05:58:47;;;;;;;17.40;8.60;;;;;;;-3.51;90.79;98197.72;10296115;28;20026;-47
2024/01/09 06:03:46;;;;;;;;;;;;;;;-3.33;91.96;98236.91;10289349;28;20061;-48
2024/01/09 06:08:45;;;;;;;28.73;15.55;;;;;;;-3.29;92.19;98244.72;10305689;28;19967;-47
2024/01/09 06:13:44;;;;;;;22.02;11.82;;;;;;;-3.98;93.56;98205.81;10325265;28;20753;-48
2024/01/09 06:18:43;;;;;;;27.05;14.88;;;;;;;-3.66;93.59;98305.88;10325507;28;20489;-47
2024/01/09 06:23:42;;;;;;;31.90;15.75;;;;;;;-4.17;93.62;98236.72;10311063;28;20959;-49
2024/01/09 06:28:42;;;;;;;21.15;11.68;;;;;;;-4.00;92.89;98301.16;10324913;28;20108;-47
2024/01/09 06:33:41;;;;;;;36.15;18.95;;;;;;;-3.96;93.53;98343.69;10293371;28;20070;-49
2024/01/09 06:38:40;;;;;;;42.70;22.55;;;;;;;-3.54;92.49;98344.69;10317789;28;20049;-47
2024/01/09 06:43:39;;;;;;;;;;;;;;;-4.00;92.47;98362.00;10325004;28;20100;-48
2024/01/09 06:48:38;;;;;;;44.22;23.52;;;;;;;-3.74;93.00;98380.56;10324639;28;19956;-49
2024/01/09 06:53:37;;;;;;;38.25;18.88;;;;;;;-3.93;91.75;98384.44;10324518;28;20037;-47
2024/01/09 06:58:36;;;;;;;50.22;28.15;;;;;;;-4.16;92.62;98370.28;10318042;28;20034;-47
2024/01/09 07:03:35;;;;;;;30.48;15.43;;;;;;;-4.40;91.81;98369.50;10322497;28;20113;-47
2024/01/09 07:08:34;;;;;;;31.30;15.32;;;;;;;-4.70;92.62;98376.81;10322061;28;20081;-47
2024/01/09 07:13:33;;;;;;;35.65;18.30;;;;;;;-4.67;93.13;98404.88;10323689;28;20138;-49
2024/01/09 07:18:32;;;;;;;43.08;21.02;;;;;;;-4.49;93.67;98439.81;10326880;28;20467;-47
2024/01/09 07:23:31;;;;;;;34.95;16.63;;;;;;;-4.72;93.31;98461.00;10331369;28;20483;-47
2024/01/09 07:28:30;;;;;;;;;;;;;;;-4.53;94.22;98468.25;10310290;28;20048;-47
2024/01/09 07:33:29;;;;;;;53.10;27.98;;;;;;;-4.45;94.20;98480.66;10331345;28;19920;-47
2024/01/09 07:38:27;;;;;;;;;;;;;;;-4.39;94.21;98497.94;10331620;28;20043;-47
2024/01/09 07:43:26;;;;;;;45.92;23.40;;;;;;;-4.48;94.31;98502.38;10331563;28;20007;-48
2024/01/09 07:48:25;;;;;;;36.28;18.30;;;;;;;-4.75;95.27;98493.72;10331068;28;20033;-47
2024/01/09 07:53:24;;;;;;;;;;;;;;;-4.74;94.64;98514.09;10331511;28;20055;-49
2024/01/09 07:58:24;;;;;;;41.47;21.08;;;;;;;-5.09;95.18;98474.50;10331329;28;19967;-48
2024/01/09 08:03:23;;;;;;;42.63;20.60;;;;;;;-4.75;94.96;98484.47;10330804;28;20510;-47
2024/01/09 08:08:22;;;;;;;34.63;18.08;;;;;;;-5.51;95.28;98426.78;10328745;28;20554;-47
2024/01/09 08:13:21;;;;;;;28.85;14.25;;;;;;;-4.80;94.89;98518.72;10308030;28;20471;-47
2024/01/09 08:18:20;;;;;;;;;;;;;;;-4.84;94.51;98522.69;10325727;28;20477;-47
2024/01/09 08:23:19;;;;;;;28.85;14.13;;;;;;;-5.36;95.28;98449.75;10328944;28;19995;-47
2024/01/09 08:28:18;;;;;;;43.40;21.77;;;;;;;-4.63;95.26;98548.66;10329434;28;20439;-47
2024/01/09 08:33:17;;;;;;;34.03;17.55;;;;;;;-4.53;93.93;98565.38;10329275;28;20482;-47
2024/01/09 08:38:17;;;;;;;;;;;;;;;-4.57;94.75;98576.06;10329997;28;20037;-48
2024/01/09 08:43:16;;;;;;;25.08;13.38;;;;;;;-5.25;95.03;98537.41;10329340;28;19956;-47
2024/01/09 08:48:15;;;;;;;;;;;;;;;-4.94;95.16;98575.94;10329661;28;20068;-49
2024/01/09 08:53:14;;;;;;;47.10;24.70;;;;;;;-5.10;94.42;98547.75;10328469;28;20367;-48
2024/01/09 08:58:13;;;;;;;;;;;;;;;-5.05;93.88;98581.88;10327269;28;20838;-47
2024/01/09 09:03:12;;;;;;;35.13;16.48;;;;;;;-5.34;95.87;98559.50;10326176;28;20310;-48
2024/01/09 09:08:11;;;;;;;;;;;;;;;-5.00;94.01;98582.19;10328018;28;20041;-47
2024/01/09 09:13:10;;;;;;;51.83;22.10;;;;;;;-5.00;94.79;98549.31;10327325;28;19979;-48
2024/01/09 09:18:10;;;;;;;45.67;22.00;;;;;;;-4.91;94.19;98585.41;10307742;28;20061;-48
2024/01/09 09:23:09;;;;;;;40.55;17.75;;;;;;;-5.34;93.40;98570.50;10333025;28;20651;-49
2024/01/09 09:28:08;;;;;;;;;;;;;;;-5.27;93.49;98604.72;10308432;28;20535;-47
2024/01/09 09:33:08;;;;;;;30.73;14.75;;;;;;;-5.42;93.48;98613.72;10308320;28;20322;-47
2024/01/09 09:38:07;;;;;;;42.05;19.25;;;;;;;-5.50;93.22;98619.06;10318873;28;20080;-48
2024/01/09 09:43:09;;;;;;;;;;;;;;;-5.75;92.93;98618.88;10342795;28;20108;-47
2024/01/09 09:48:10;;;;;;;23.10;10.60;;;;;;;-5.83;93.75;98621.56;10330916;28;20035;-49
2024/01/09 09:53:11;;;;;;;24.75;12.25;;;;;;;-6.05;92.92;98551.69;10335829;28;20073;-48
2024/01/09 09:58:09;;;;;;;40.92;21.17;;;;;;;-5.65;92.76;98625.50;10324580;28;20096;-47
2024/01/09 10:03:10;;;;;;;;;;;;;;;-5.64;92.39;98627.25;10321386;28;20501;-49
2024/01/09 10:08:12;;;;;;;41.40;17.33;;;;;;;-5.42;93.03;98633.94;10325363;28;19982;-48
2024/01/09 10:13:12;;;;;;;38.97;20.70;;;;;;;-5.76;92.95;98606.09;10344177;28;20069;-47
2024/01/09 10:18:10;;;;;;;39.30;21.02;;;;;;;-5.41;93.55;98633.16;10333681;28;20088;-48
2024/01/09 10:23:09;;;;;;;;;;;;;;;-5.69;91.64;98646.25;10326071;28;20068;-48
2024/01/09 10:28:16;;;;;;;24.60;13.33;;;;;;;-5.62;91.30;98645.06;10344586;28;20580;-48
2024/01/09 10:33:15;;;;;;;27.17;14.25;;;;;;;-5.83;91.51;98635.06;10357837;28;20068;-48
2024/01/09 10:38:14;;;;;;;;;;;;;;;-5.55;92.00;98637.19;10346561;28;20079;-48
2024/01/09 10:43:16;;;;;;;23.40;13.00;;;;;;;-5.60;92.09;98654.53;10351614;28;20004;-48
2024/01/09 10:48:16;;;;;;;31.42;15.82;;;;;;;-5.54;91.99;98637.31;10310882;28;20072;-48
2024/01/09 10:53:16;;;;;;;34.25;16.65;;;;;;;-5.21;90.46;98658.31;10316133;28;20064;-50
2024/01/09 10:58:15;;;;;;;27.17;14.10;;;;;;;-5.75;89.53;98573.38;10320995;28;20609;-49
2024/01/09 11:03:14;;;;;;;31.95;16.80;;;;;;;-4.77;89.32;98660.72;10318401;28;20061;-48
2024/01/09 11:08:17;;;;;;;23.77;14.65;;;;;;;-4.69;87.41;98629.25;10319012;28;20064;-48
2024/01/09 11:13:18;;;;;;;18.08;11.80;;;;;;;-4.50;84.40;98676.16;10320373;28;20062;-48
2024/01/09 11:18:18;;;;;;;32.88;14.85;;;;;;;-4.21;84.01;98701.03;10319622;28;20140;-48
2024/01/09 11:23:43;;;;;;;20.70;13.07;;;;;;;-4.12;83.11;98713.50;10318299;28;20084;-49
2024/01/09 11:28:43;;;;;;;18.65;10.90;;;;;;;-4.68;82.28;98623.38;10320209;28;20057;-50
2024/01/09 11:33:42;;;;;;;15.82;9.23;;;;;;;-4.14;81.19;98698.19;10303424;28;20140;-48
2024/01/09 11:38:42;;;;;;;18.42;11.27;;;;;;;-4.22;81.06;98710.31;10282856;28;21527;-49
2024/01/09 11:44:00;;;;;;;17.92;10.43;;;;;;;-4.49;80.06;98723.50;10284732;28;20124;-49
2024/01/09 11:49:00;;;;;;;18.40;9.88;;;;;;;-4.27;80.92;98721.78;10281565;28;20120;-48
2024/01/09 11:54:00;;;;;;;16.02;9.32;;;;;;;-4.37;80.14;98734.56;10280036;28;20867;-48
2024/01/09 11:59:00;;;;;;;12.45;8.18;;;;;;;-4.87;79.10;98693.72;10281844;28;20574;-48
2024/01/09 12:03:59;;;;;;;11.38;7.05;;;;;;;-4.86;77.89;98739.41;10282650;28;20156;-48
2024/01/09 12:08:59;;;;;;;13.00;7.80;;;;;;;-5.13;79.01;98710.38;10292823;28;20044;-48
2024/01/09 12:14:01;;;;;;;14.27;6.65;;;;;;;-5.20;78.45;98741.03;10289113;28;20042;-48
2024/01/09 12:19:01;;;;;;;11.85;7.80;;;;;;;-5.29;77.51;98693.13;10298213;28;20178;-48
2024/01/09 12:24:04;;;;;;;11.32;7.38;;;;;;;-4.95;78.13;98747.97;10289080;28;20483;-49
2024/01/09 12:29:04;;;;;;;26.52;13.88;;;;;;;-4.93;78.53;98757.44;10318106;28;20139;-48
2024/01/09 12:34:03;;;;;;;37.13;18.88;;;;;;;-4.71;77.65;98757.38;10347392;28;20473;-48
2024/01/09 12:39:03;;;;;;;20.90;14.40;;;;;;;-4.36;78.01;98759.09;10346719;28;20171;-49
2024/01/09 12:44:12;;;;;;;16.20;11.07;;;;;;;-4.28;78.43;98765.63;10342219;28;20159;-49
2024/01/09 12:49:12;;;;;;;14.25;9.57;;;;;;;-4.16;77.12;98782.47;10346271;28;20124;-49
2024/01/09 12:54:17;;;;;;;12.57;7.05;;;;;;;-4.26;74.26;98745.44;10344448;28;21326;-48
2024/01/09 12:59:21;;;;;;;18.27;10.95;;;;;;;-4.26;74.28;98755.59;10348083;28;20124;-49
2024/01/09 13:04:21;;;;;;;15.57;10.80;;;;;;;-3.99;75.51;98793.09;10354873;28;20116;-48
2024/01/09 13:09:20;;;;;;;17.80;11.90;;;;;;;-4.02;72.95;98810.63;10352956;28;20147;-49
2024/01/09 13:14:19;;;;;;;19.23;12.05;;;;;;;-4.31;73.52;98795.78;10345752;28;20036;-48
2024/01/09 13:19:19;;;;;;;16.88;11.23;;;;;;;-4.28;72.21;98816.31;10346252;28;20136;-48
2024/01/09 13:24:18;;;;;;;13.90;7.78;;;;;;;-4.79;73.72;98803.16;10346827;28;20120;-48
2024/01/09 13:29:19;;;;;;;15.20;10.48;;;;;;;-4.77;74.11;98842.13;10359787;28;21591;-49
2024/01/09 13:34:18;;;;;;;12.20;7.88;;;;;;;-5.37;73.85;98795.41;10354029;28;20513;-49
2024/01/09 13:39:21;;;;;;;15.98;8.98;;;;;;;-5.41;73.71;98828.81;10361636;28;20132;-48
2024/01/09 13:44:20;;;;;;;12.80;8.80;;;;;;;-5.12;75.28;98848.81;10356293;28;20136;-48
2024/01/09 13:49:19;;;;;;;12.52;7.90;;;;;;;-4.95;74.88;98862.75;10357161;28;20053;-48
2024/01/09 13:54:18;;;;;;;;;;;;;;;-5.00;75.27;98861.53;10356497;28;20144;-48
2024/01/09 13:59:17;;;;;;;13.55;8.30;;;;;;;-5.15;75.38;98878.91;10357549;28;20021;-48
2024/01/09 14:04:16;;;;;;;;;;;;;;;-5.09;77.20;98906.34;10354885;28;20048;-48
2024/01/09 14:09:15;;;;;;;30.65;18.75;;;;;;;-5.01;77.41;98866.44;10348946;28;19963;-49
2024/01/09 14:14:14;;;;;;;;;;;;;;;-4.98;76.56;98889.47;10344485;28;20482;-49
2024/01/09 14:19:12;;;;;;;22.77;12.88;;;;;;;-5.12;77.29;98881.69;10344197;28;20142;-50
2024/01/09 14:24:11;;;;;;;;;;;;;;;-5.25;75.13;98901.72;10340675;28;20049;-48
2024/01/09 14:29:10;;;;;;;15.82;8.40;;;;;;;-5.50;75.57;98861.84;10343079;28;20027;-49
2024/01/09 14:34:11;;;;;;;;;;;;;;;-4.83;77.17;98919.38;10342734;28;20040;-50
2024/01/09 14:39:11;;;;;;;14.68;9.98;;;;;;;-5.62;75.13;98850.75;10342698;28;20723;-48
2024/01/09 14:44:09;;;;;;;13.73;9.02;;;;;;;-5.20;77.46;98915.63;10340015;28;20191;-48
2024/01/09 14:49:09;;;;;;;;;;;;;;;-5.27;74.46;98934.50;10342371;28;20037;-49
2024/01/09 14:54:07;;;;;;;23.17;14.20;;;;;;;-5.34;76.88;98938.94;10346345;28;19913;-48
2024/01/09 14:59:06;;;;;;;;;;;;;;;-5.48;76.56;98953.88;10351616;28;20087;-48
2024/01/09 15:04:05;;;;;;;19.43;12.13;;;;;;;-5.68;78.53;98956.47;10355005;28;20026;-48
2024/01/09 15:09:04;;;;;;;;;;;;;;;-8.73;78.52;98478.03;10337391;28;20124;-48
2024/01/09 15:14:03;;;;;;;12.50;8.33;;;;;;;-6.01;79.37;98896.44;10354499;28;19971;-49
2024/01/09 15:19:02;;;;;;;;;;;;;;;-5.68;79.00;98979.22;10344928;28;20159;-48
2024/01/09 15:24:01;;;;;;;18.20;11.33;;;;;;;-6.33;79.46;98882.94;10340523;28;20034;-48
2024/01/09 15:29:00;;;;;;;;;;;;;;;-6.05;79.51;98973.66;10340460;28;20041;-48
2024/01/09 15:33:59;;;;;;;20.90;12.30;;;;;;;-5.88;79.61;98985.16;10340726;28;19909;-49
2024/01/09 15:38:58;;;;;;;;;;;;;;;-6.00;79.27;98991.72;10351038;28;20492;-49
2024/01/09 15:43:57;;;;;;;15.73;8.50;;;;;;;-6.33;79.65;98930.94;10360664;28;20007;-48
2024/01/09 15:48:55;;;;;;;;;;;;;;;-6.14;81.16;99010.78;10361124;28;20035;-49
2024/01/09 15:53:54;;;;;;;21.63;12.50;;;;;;;-5.94;80.31;99026.00;10360216;28;19917;-50
2024/01/09 15:58:54;;;;;;;;;;;;;;;-6.07;80.83;99028.22;10361978;28;20025;-49
2024/01/09 16:03:53;;;;;;;20.88;10.75;;;;;;;-6.23;80.66;99020.13;10332973;28;20767;-47
2024/01/09 16:08:52;;;;;;;17.33;10.02;;;;;;;-6.34;81.69;99017.59;10359476;28;20123;-48
2024/01/09 16:13:51;;;;;;;25.35;12.77;;;;;;;-6.41;82.33;99001.75;10357671;28;20145;-50
2024/01/09 16:18:50;;;;;;;;;;;;;;;-6.54;83.93;99028.50;10363890;28;20119;-47
2024/01/09 16:23:49;;;;;;;18.27;11.93;;;;;;;-7.27;84.99;98947.34;10361444;28;19968;-48
2024/01/09 16:28:47;;;;;;;;;;;;;;;-6.68;85.13;99033.13;10359647;28;20029;-48
2024/01/09 16:33:47;;;;;;;15.87;9.50;;;;;;;-6.84;85.93;99023.31;10361641;28;19923;-48
2024/01/09 16:38:46;;;;;;;17.23;9.40;;;;;;;-6.78;85.47;99036.50;10362872;28;20118;-49
2024/01/09 16:43:47;;;;;;;;;;;;;;;-6.90;86.26;99048.94;10362532;28;20136;-48
2024/01/09 16:48:49;;;;;;;15.90;8.40;;;;;;;-6.99;85.92;99050.66;10361357;28;20005;-50
2024/01/09 16:53:48;;;;;;;22.85;12.23;;;;;;;-7.36;86.18;98976.81;10359374;28;20155;-48
2024/01/09 16:58:48;;;;;;;;;;;;;;;-6.65;86.26;99061.13;10351867;28;20039;-48
2024/01/09 17:03:47;;;;;;;21.45;10.70;;;;;;;-6.92;86.65;99065.56;10346229;28;20019;-48
2024/01/09 17:08:47;;;;;;;23.17;12.93;;;;;;;-6.84;86.49;99077.19;10347978;28;20112;-48
2024/01/09 17:13:46;;;;;;;24.13;13.57;;;;;;;-6.59;86.43;99054.09;10350082;28;20125;-50
2024/01/09 17:18:45;;;;;;;25.77;13.52;;;;;;;-6.77;86.14;99026.50;10289066;28;20083;-49
2024/01/09 17:23:45;;;;;;;;;;;;;;;-6.66;86.07;99074.53;10314041;28;20053;-50
2024/01/09 17:28:44;;;;;;;14.27;8.50;;;;;;;-6.87;86.07;99071.00;10314250;28;20003;-48
2024/01/09 17:33:43;;;;;;;17.30;10.18;;;;;;;-7.04;86.93;99050.25;10314843;28;20417;-49
2024/01/09 17:38:42;;;;;;;;;;;;;;;-6.97;87.21;99084.47;10320823;28;20025;-49
2024/01/09 17:43:41;;;;;;;21.48;12.98;;;;;;;-7.12;87.56;99083.13;10319130;28;19948;-49
2024/01/09 17:48:40;;;;;;;16.63;9.35;;;;;;;-6.89;86.82;99078.44;10319539;28;20057;-49
2024/01/09 17:53:38;;;;;;;;;;;;;;;-6.74;86.73;99084.84;10319400;28;20599;-49
2024/01/09 17:58:37;;;;;;;54.20;22.40;;;;;;;-6.70;86.70;99082.56;10318443;28;20030;-48
2024/01/09 18:03:37;;;;;;;66.60;22.25;;;;;;;-6.87;86.08;99098.78;10319535;28;20117;-49
2024/01/09 18:08:36;;;;;;;14.88;8.57;;;;;;;-7.07;86.65;99107.13;10318452;28;20061;-49
2024/01/09 18:13:38;;;;;;;30.73;13.80;;;;;;;-7.40;86.85;99046.22;10285139;28;20169;-49
2024/01/09 18:18:37;;;;;;;18.85;10.25;;;;;;;-7.33;87.55;99100.63;10316427;28;20120;-48
2024/01/09 18:23:36;;;;;;;;;;;;;;;-7.23;88.22;99115.84;10318471;28;20121;-49
2024/01/09 18:28:35;;;;;;;19.08;9.93;;;;;;;-7.10;87.30;99120.34;10318522;28;20011;-48
2024/01/09 18:33:34;;;;;;;17.67;10.48;;;;;;;-7.09;88.20;99124.63;10318284;28;20132;-49
2024/01/09 18:38:34;;;;;;;18.40;10.82;;;;;;;-7.20;88.09;99100.09;10319017;28;20037;-49
2024/01/09 18:43:34;;;;;;;18.77;10.68;;;;;;;-6.97;87.29;99124.84;10318939;28;20742;-50
2024/01/09 18:48:33;;;;;;;20.60;11.63;;;;;;;-6.90;87.06;99101.91;10319679;28;20061;-49
2024/01/09 18:53:32;;;;;;;;;;;;;;;-6.53;86.34;99125.31;10316704;28;20465;-48
2024/01/09 18:58:31;;;;;;;23.23;12.67;;;;;;;-6.56;85.60;99109.91;10317699;28;19916;-48
2024/01/09 19:03:30;;;;;;;;;;;;;;;-6.42;85.31;99122.09;10318452;28;20471;-51
2024/01/09 19:08:30;;;;;;;34.88;17.30;;;;;;;-7.45;85.09;98949.13;10316596;28;21520;-51
2024/01/09 19:13:30;;;;;;;23.95;13.52;;;;;;;-6.27;85.57;99116.59;10319823;28;20500;-49
2024/01/09 19:18:29;;;;;;;26.02;15.00;;;;;;;-6.66;84.49;99102.28;10326102;28;20137;-48
2024/01/09 19:23:27;;;;;;;;;;;;;;;-6.27;84.10;99139.31;10326886;28;20057;-49
2024/01/09 19:28:26;;;;;;;46.27;19.37;;;;;;;-6.40;85.08;99140.78;10326682;28;19919;-48
2024/01/09 19:33:25;;;;;;;;;;;;;;;-6.48;84.43;99153.50;10325739;28;20029;-48
2024/01/09 19:38:24;;;;;;;22.80;12.07;;;;;;;-6.42;84.23;99154.94;10325759;28;19917;-49
2024/01/09 19:43:25;;;;;;;;;;;;;;;-6.34;82.91;99151.44;10325238;28;20025;-47
2024/01/09 19:48:24;;;;;;;22.90;12.43;;;;;;;-6.48;82.95;99128.25;10325932;28;19956;-49
2024/01/09 19:53:23;;;;;;;;;;;;;;;-6.12;81.23;99151.66;10324662;28;20076;-49
2024/01/09 19:58:22;;;;;;;18.47;9.90;;;;;;;-6.55;81.83;99129.34;10326186;28;19917;-50
2024/01/09 20:03:21;;;;;;;;;;;;;;;-6.45;82.58;99164.78;10326242;28;20045;-48
2024/01/09 20:08:20;;;;;;;32.37;14.90;;;;;;;-6.51;82.65;99169.25;10325654;28;19999;-49
2024/01/09 20:13:18;;;;;;;;;;;;;;;-6.82;83.96;99176.66;10324728;28;20037;-48
2024/01/09 20:18:21;;;;;;;14.67;8.83;;;;;;;-6.92;83.43;99186.69;10322321;28;19925;-50
2024/01/09 20:23:20;;;;;;;24.70;13.40;;;;;;;-6.76;84.84;99187.31;10323902;28;20132;-49
2024/01/09 20:28:19;;;;;;;26.15;14.70;;;;;;;-6.70;83.46;99155.78;10324384;28;20068;-48
2024/01/09 20:33:18;;;;;;;;;;;;;;;-6.73;79.88;99192.63;10323476;28;20036;-50
2024/01/09 20:38:18;;;;;;;20.63;10.47;;;;;;;-6.55;80.80;99197.50;10324047;28;20430;-48
2024/01/09 20:43:17;;;;;;;15.48;8.98;;;;;;;-6.45;79.81;99210.22;10322802;28;20307;-46
2024/01/09 20:48:16;;;;;;;;;;;;;;;-6.38;79.94;99206.59;10322686;28;20446;-48
2024/01/09 20:53:15;;;;;;;11.53;6.67;;;;;;;-6.80;78.54;99190.31;10321063;28;19913;-50
2024/01/09 20:58:17;;;;;;;;;;;;;;;-6.42;78.99;99210.47;10322189;28;20036;-46
2024/01/09 21:03:16;;;;;;;19.42;8.70;;;;;;;-6.41;77.97;99207.22;10323043;28;19959;-51
2024/01/09 21:08:15;;;;;;;19.60;9.75;;;;;;;-6.55;78.03;99211.06;10323162;28;20104;-48
2024/01/09 21:13:14;;;;;;;25.13;10.65;;;;;;;-6.63;78.07;99206.94;10321648;28;20496;-48
2024/01/09 21:18:13;;;;;;;;;;;;;;;-6.37;78.40;99206.72;10323183;28;20522;-47
2024/01/09 21:23:12;;;;;;;26.70;11.30;;;;;;;-6.45;77.63;99200.13;10322078;28;20684;-48
2024/01/09 21:28:11;;;;;;;;;;;;;;;-6.61;77.67;99205.44;10321076;28;20046;-49
2024/01/09 21:33:11;;;;;;;22.47;11.10;;;;;;;-6.53;77.56;99196.91;10321170;28;19999;-47
2024/01/09 21:38:10;;;;;;;12.38;6.38;;;;;;;-6.57;77.14;99204.09;10319576;28;20064;-49
2024/01/09 21:43:09;;;;;;;;;;;;;;;-6.46;77.97;99202.50;10321419;28;20029;-48
2024/01/09 21:48:08;;;;;;;16.77;7.50;;;;;;;-6.55;78.45;99147.94;10320028;28;20020;-49
2024/01/09 21:53:07;;;;;;;13.90;7.43;;;;;;;-6.30;78.87;99180.38;10320424;28;20073;-49
2024/01/09 21:58:08;;;;;;;;;;;;;;;-6.07;78.82;99191.59;10320953;28;20076;-48
2024/01/09 22:03:07;;;;;;;14.40;7.68;;;;;;;-6.07;78.72;99192.47;10319548;28;20357;-47
2024/01/09 22:08:07;;;;;;;16.55;8.88;;;;;;;-6.08;78.34;99190.72;10321146;28;20061;-47
2024/01/09 22:13:06;;;;;;;11.80;7.00;;;;;;;-6.79;78.89;99108.78;10320700;28;20510;-49
2024/01/09 22:18:05;;;;;;;;;;;;;;;-6.27;78.60;99189.84;10322510;28;20471;-47
2024/01/09 22:23:03;;;;;;;12.03;6.60;;;;;;;-6.49;78.60;99198.06;10321272;28;20355;-48
2024/01/09 22:28:02;;;;;;;;;;;;;;;-6.40;77.31;99192.97;10322881;28;20373;-48
2024/01/09 22:33:04;;;;;;;15.10;8.23;;;;;;;-6.76;78.68;99151.97;10319931;28;19944;-48
2024/01/09 22:38:04;;;;;;;15.93;8.27;;;;;;;-6.44;78.21;99181.69;10318850;28;20080;-48
2024/01/09 22:43:03;;;;;;;14.68;8.60;;;;;;;-6.40;79.13;99171.09;10319632;28;20734;-48
2024/01/09 22:48:02;;;;;;;15.82;7.88;;;;;;;-6.34;79.40;99158.13;10317832;28;20907;-47
2024/01/09 22:53:01;;;;;;;;;;;;;;;-6.45;78.00;99159.72;10316555;28;20502;-47
2024/01/09 22:58:00;;;;;;;18.08;8.52;;;;;;;-6.64;78.20;99137.03;10317850;28;20007;-47
2024/01/09 23:03:02;;;;;;;;;;;;;;;-6.51;77.53;99164.22;10318827;28;20048;-48
2024/01/09 23:08:01;;;;;;;13.88;7.53;;;;;;;-6.58;77.85;99162.78;10318028;28;19963;-47
2024/01/09 23:13:00;;;;;;;13.50;7.60;;;;;;;-6.49;77.94;99154.25;10319966;28;20069;-48
2024/01/09 23:17:59;;;;;;;23.60;10.35;;;;;;;-7.08;78.45;99065.88;10318503;28;20159;-48
2024/01/09 23:22:58;;;;;;;;;;;;;;;-6.55;77.44;99157.13;10319947;28;20076;-48